createdAt,value
2023-04-25T00:00:38.448Z,16.40
2023-04-25T00:03:07.017Z,16.50
2023-04-25T00:05:35.163Z,16.40
2023-04-25T00:08:03.246Z,16.40
2023-04-25T00:10:31.241Z,16.40
2023-04-25T00:12:59.692Z,16.30
2023-04-25T00:15:27.711Z,16.40
2023-04-25T00:17:57.167Z,16.40
2023-04-25T00:20:25.892Z,16.40
2023-04-25T00:22:54.519Z,16.50
2023-04-25T00:25:22.751Z,16.50
2023-04-25T00:27:50.805Z,16.40
2023-04-25T00:30:18.893Z,16.40
2023-04-25T00:32:47.084Z,16.50
2023-04-25T00:35:16.552Z,16.40
2023-04-25T00:37:44.674Z,16.30
2023-04-25T00:40:13.090Z,16.30
2023-04-25T00:42:41.149Z,16.40
2023-04-25T00:45:09.866Z,16.40
2023-04-25T00:47:38.384Z,16.40
2023-04-25T00:50:07.887Z,16.40
2023-04-25T00:52:37.368Z,16.40
2023-04-25T00:55:05.870Z,16.40
2023-04-25T00:57:34.032Z,16.40
2023-04-25T01:00:02.065Z,16.50
2023-04-25T01:02:30.256Z,16.40
2023-04-25T01:04:58.421Z,16.40
2023-04-25T01:07:26.859Z,16.30
2023-04-25T01:09:56.399Z,16.20
2023-04-25T01:12:24.532Z,16.20
2023-04-25T01:14:52.582Z,16.20
2023-04-25T01:17:20.806Z,16.20
2023-04-25T01:19:49.988Z,16.20
2023-04-25T01:22:19.473Z,16.30
2023-04-25T01:24:47.695Z,16.30
2023-04-25T01:27:16.268Z,16.30
2023-04-25T01:29:44.316Z,16.40
2023-04-25T01:32:12.531Z,16.30
2023-04-25T01:34:40.614Z,16.40
2023-04-25T01:37:08.684Z,16.40
2023-04-25T01:39:38.091Z,16.30
2023-04-25T01:42:06.267Z,16.30
2023-04-25T01:44:34.306Z,16.30
2023-04-25T01:47:02.426Z,16.30
2023-04-25T01:49:30.482Z,16.30
2023-04-25T01:51:58.535Z,16.30
2023-04-25T01:54:26.639Z,16.30
2023-04-25T01:56:56.923Z,16.30
2023-04-25T01:59:24.952Z,16.40
2023-04-25T02:01:53.116Z,16.40
2023-04-25T02:04:21.383Z,16.40
2023-04-25T02:06:49.507Z,16.30
2023-04-25T02:09:17.626Z,16.30
2023-04-25T02:11:46.162Z,16.30
2023-04-25T02:14:15.615Z,16.30
2023-04-25T02:16:44.973Z,16.20
2023-04-25T02:19:13.188Z,16.30
2023-04-25T02:21:41.270Z,16.30
2023-04-25T02:24:10.217Z,16.30
2023-04-25T02:26:38.325Z,16.30
2023-04-25T02:29:06.799Z,16.40
2023-04-25T02:31:36.292Z,16.40
2023-04-25T02:34:04.405Z,16.40
2023-04-25T02:36:35.152Z,16.30
2023-04-25T02:39:04.056Z,16.20
2023-04-25T02:41:32.145Z,16.20
2023-04-25T02:44:00.182Z,16.20
2023-04-25T02:46:38.407Z,16.30
2023-04-25T02:49:08.694Z,16.20
2023-04-25T02:51:36.720Z,16.30
2023-04-25T02:54:05.062Z,16.30
2023-04-25T02:56:33.114Z,16.30
2023-04-25T02:59:01.286Z,16.30
2023-04-25T03:01:29.312Z,16.40
2023-04-25T03:03:57.379Z,16.30
2023-04-25T03:06:26.799Z,16.20
2023-04-25T03:08:55.127Z,16.20
2023-04-25T03:11:23.212Z,16.10
2023-04-25T03:13:51.510Z,16.10
2023-04-25T03:16:19.836Z,16.00
2023-04-25T03:18:47.885Z,16.10
2023-04-25T03:21:15.916Z,16.10
2023-04-25T03:23:45.470Z,16.10
2023-04-25T03:26:13.490Z,16.20
2023-04-25T03:28:41.842Z,16.20
2023-04-25T03:31:09.863Z,16.20
2023-04-25T03:33:37.949Z,16.30
2023-04-25T03:36:07.676Z,16.30
2023-04-25T03:38:35.957Z,16.30
2023-04-25T03:41:05.634Z,16.20
2023-04-25T03:43:33.683Z,16.10
2023-04-25T03:46:02.104Z,16.20
2023-04-25T03:48:30.264Z,16.10
2023-04-25T03:50:58.329Z,16.20
2023-04-25T03:53:26.398Z,16.20
2023-04-25T03:55:54.435Z,16.20
2023-04-25T03:58:25.465Z,16.20
2023-04-25T04:00:53.634Z,16.30
2023-04-25T04:03:22.436Z,16.20
2023-04-25T04:05:51.676Z,16.30
2023-04-25T04:08:19.904Z,16.30
2023-04-25T04:10:47.992Z,16.20
2023-04-25T04:13:16.065Z,16.20
2023-04-25T04:15:46.590Z,16.10
2023-04-25T04:18:14.694Z,16.10
2023-04-25T04:20:42.775Z,16.20
2023-04-25T04:23:11.705Z,16.20
2023-04-25T04:25:40.752Z,16.20
2023-04-25T04:28:08.819Z,16.20
2023-04-25T04:30:38.619Z,16.20
2023-04-25T04:33:08.555Z,16.30
2023-04-25T04:35:36.662Z,16.30
2023-04-25T04:38:04.703Z,16.20
2023-04-25T04:40:33.394Z,16.10
2023-04-25T04:43:01.516Z,16.10
2023-04-25T04:45:29.751Z,16.10
2023-04-25T04:47:58.009Z,16.10
2023-04-25T04:50:28.359Z,16.20
2023-04-25T04:52:56.693Z,16.20
2023-04-25T04:55:24.866Z,16.20
2023-04-25T04:57:52.968Z,16.20
2023-04-25T05:00:21.952Z,16.20
2023-04-25T05:02:50.207Z,16.30
2023-04-25T05:05:18.426Z,16.20
2023-04-25T05:07:47.916Z,16.20
2023-04-25T05:10:16.330Z,16.10
2023-04-25T05:12:56.823Z,16.10
2023-04-25T05:15:24.904Z,16.00
2023-04-25T05:17:53.048Z,16.00
2023-04-25T05:20:21.269Z,16.00
2023-04-25T05:22:51.528Z,16.00
2023-04-25T05:25:19.860Z,16.00
2023-04-25T05:27:47.924Z,16.10
2023-04-25T05:30:16.087Z,16.10
2023-04-25T05:32:44.200Z,16.20
2023-04-25T05:35:12.329Z,16.10
2023-04-25T05:37:40.430Z,16.10
2023-04-25T05:40:11.273Z,16.20
2023-04-25T05:42:39.332Z,16.10
2023-04-25T05:45:08.443Z,16.10
2023-04-25T05:47:36.571Z,16.10
2023-04-25T05:50:05.058Z,16.10
2023-04-25T05:52:34.054Z,16.10
2023-04-25T05:55:02.176Z,16.10
2023-04-25T05:57:31.657Z,16.10
2023-04-25T05:59:59.808Z,16.10
2023-04-25T06:02:28.457Z,16.20
2023-04-25T06:04:57.265Z,16.20
2023-04-25T06:07:25.654Z,16.20
2023-04-25T06:09:54.437Z,16.20
2023-04-25T06:12:23.542Z,16.10
2023-04-25T06:14:52.935Z,16.10
2023-04-25T06:17:21.046Z,16.10
2023-04-25T06:19:49.109Z,16.10
2023-04-25T06:22:17.188Z,16.10
2023-04-25T06:24:45.282Z,16.10
2023-04-25T06:27:15.155Z,16.20
2023-04-25T06:29:44.557Z,16.20
2023-04-25T06:32:13.987Z,16.20
2023-04-25T06:34:42.085Z,16.20
2023-04-25T06:37:10.133Z,16.20
2023-04-25T06:39:41.100Z,16.20
2023-04-25T06:42:09.547Z,16.10
2023-04-25T06:44:37.605Z,16.10
2023-04-25T06:47:05.814Z,16.10
2023-04-25T06:49:35.329Z,16.10
2023-04-25T06:52:03.927Z,16.10
2023-04-25T06:54:32.024Z,16.10
2023-04-25T06:57:01.914Z,16.20
2023-04-25T06:59:30.026Z,16.20
2023-04-25T07:01:58.256Z,16.20
2023-04-25T07:04:26.984Z,16.20
2023-04-25T07:06:56.686Z,16.20
2023-04-25T07:09:24.777Z,16.10
2023-04-25T07:11:52.877Z,16.10
2023-04-25T07:14:21.193Z,16.10
2023-04-25T07:16:49.550Z,16.00
2023-04-25T07:19:17.672Z,16.00
2023-04-25T07:21:45.814Z,16.00
2023-04-25T07:24:15.331Z,16.10
2023-04-25T07:26:43.438Z,16.10
2023-04-25T07:29:11.604Z,16.20
2023-04-25T07:31:40.013Z,16.20
2023-04-25T07:34:08.150Z,16.30
2023-04-25T07:36:36.712Z,16.40
2023-04-25T07:39:05.035Z,16.40
2023-04-25T07:41:34.667Z,16.50
2023-04-25T07:44:02.756Z,16.50
2023-04-25T07:46:30.866Z,16.50
2023-04-25T07:48:59.028Z,16.50
2023-04-25T07:51:27.059Z,16.60
2023-04-25T07:53:55.121Z,16.70
2023-04-25T07:56:23.148Z,16.70
2023-04-25T07:58:52.950Z,16.80
2023-04-25T08:01:22.688Z,16.80
2023-04-25T08:03:50.937Z,16.80
2023-04-25T08:06:19.497Z,16.90
2023-04-25T08:08:47.729Z,16.90
2023-04-25T08:11:16.990Z,16.90
2023-04-25T08:13:45.061Z,16.90
2023-04-25T08:16:14.560Z,16.80
2023-04-25T08:18:42.654Z,16.90
2023-04-25T08:21:12.539Z,16.90
2023-04-25T08:23:40.922Z,17.00
2023-04-25T08:26:09.124Z,17.00
2023-04-25T08:28:37.257Z,17.10
2023-04-25T08:31:05.748Z,17.10
2023-04-25T08:33:35.276Z,17.10
2023-04-25T08:36:03.550Z,17.10
2023-04-25T08:38:32.505Z,17.20
2023-04-25T08:41:00.582Z,17.20
2023-04-25T08:43:28.682Z,17.10
2023-04-25T08:45:56.792Z,17.10
2023-04-25T08:48:24.856Z,17.10
2023-04-25T08:50:54.940Z,17.10
2023-04-25T08:53:28.447Z,17.10
2023-04-25T08:55:57.392Z,17.20
2023-04-25T08:58:25.535Z,17.20
2023-04-25T09:00:53.941Z,17.20
2023-04-25T09:03:22.308Z,17.20
2023-04-25T09:05:51.195Z,17.20
2023-04-25T09:08:20.625Z,17.30
2023-04-25T09:10:49.341Z,17.20
2023-04-25T09:13:20.616Z,17.20
2023-04-25T09:15:52.493Z,17.20
2023-04-25T09:18:30.578Z,17.10
2023-04-25T09:21:02.139Z,17.10
2023-04-25T09:23:34.032Z,17.10
2023-04-25T09:26:02.154Z,17.10
2023-04-25T09:28:31.000Z,17.10
2023-04-25T09:30:59.475Z,17.10
2023-04-25T09:33:31.299Z,17.10
2023-04-25T09:36:04.427Z,17.10
2023-04-25T09:38:34.289Z,17.10
2023-04-25T09:41:02.910Z,17.10
2023-04-25T09:43:31.155Z,17.10
2023-04-25T09:46:01.375Z,17.10
2023-04-25T09:48:30.467Z,17.10
2023-04-25T09:51:11.401Z,17.10
2023-04-25T09:53:41.481Z,17.10
2023-04-25T09:56:10.455Z,17.10
2023-04-25T09:58:40.018Z,17.10
2023-04-25T10:01:08.832Z,17.20
2023-04-25T10:03:38.085Z,17.20
2023-04-25T10:06:09.256Z,17.20
2023-04-25T10:08:38.573Z,17.20
2023-04-25T10:11:09.044Z,17.20
2023-04-25T10:13:37.497Z,17.20
2023-04-25T10:16:06.683Z,17.20
2023-04-25T10:18:34.862Z,17.20
2023-04-25T10:21:04.468Z,17.20
2023-04-25T10:23:32.881Z,17.20
2023-04-25T10:26:01.153Z,17.20
2023-04-25T10:28:30.635Z,17.20
2023-04-25T10:31:02.031Z,17.20
2023-04-25T10:33:35.764Z,17.30
2023-04-25T10:36:12.174Z,17.20
2023-04-25T10:38:40.240Z,17.20
2023-04-25T10:41:10.444Z,17.30
2023-04-25T10:43:41.541Z,17.30
2023-04-25T10:46:25.225Z,17.30
2023-04-25T10:48:54.073Z,17.20
2023-04-25T10:51:24.003Z,17.20
2023-04-25T10:54:02.015Z,17.20
2023-04-25T10:56:30.881Z,17.20
2023-04-25T10:59:11.455Z,17.20
2023-04-25T11:01:41.587Z,17.30
2023-04-25T11:04:21.831Z,17.30
2023-04-25T11:07:05.576Z,17.30
2023-04-25T11:09:35.219Z,17.30
2023-04-25T11:12:03.302Z,17.30
2023-04-25T11:14:32.876Z,17.30
2023-04-25T11:17:01.298Z,17.20
2023-04-25T11:19:29.933Z,17.20
2023-04-25T11:21:58.036Z,17.10
2023-04-25T11:24:27.998Z,17.10
2023-04-25T11:26:56.367Z,17.10
2023-04-25T11:29:24.820Z,17.20
2023-04-25T11:31:54.528Z,17.20
2023-04-25T11:34:23.113Z,17.20
2023-04-25T11:36:51.166Z,17.20
2023-04-25T11:39:19.234Z,17.20
2023-04-25T11:41:47.735Z,17.20
2023-04-25T11:44:18.309Z,17.30
2023-04-25T11:46:46.465Z,17.20
2023-04-25T11:49:15.898Z,17.20
2023-04-25T11:51:44.349Z,17.20
2023-04-25T11:54:12.807Z,17.20
2023-04-25T11:56:43.161Z,17.20
2023-04-25T11:59:12.113Z,17.20
2023-04-25T12:01:41.975Z,17.20
2023-04-25T12:04:13.743Z,17.20
2023-04-25T12:06:44.229Z,17.20
2023-04-25T12:09:14.268Z,17.20
2023-04-25T12:11:45.826Z,17.20
2023-04-25T12:14:14.332Z,17.30
2023-04-25T12:16:43.770Z,17.20
2023-04-25T12:19:11.997Z,17.20
2023-04-25T12:21:50.478Z,17.20
2023-04-25T12:24:29.078Z,17.20
2023-04-25T12:27:01.791Z,17.20
2023-04-25T12:29:34.840Z,17.20
2023-04-25T12:32:10.588Z,17.20
2023-04-25T12:34:38.680Z,17.20
2023-04-25T12:37:07.797Z,17.20
2023-04-25T12:39:37.960Z,17.20
2023-04-25T12:42:08.676Z,17.20
2023-04-25T12:44:37.605Z,17.10
2023-04-25T12:47:06.551Z,17.10
2023-04-25T12:49:34.912Z,17.10
2023-04-25T12:52:03.392Z,17.10
2023-04-25T12:54:32.224Z,17.10
2023-04-25T12:57:03.978Z,17.10
2023-04-25T12:59:32.282Z,17.20
2023-04-25T13:02:00.526Z,17.10
2023-04-25T13:04:28.952Z,17.10
2023-04-25T13:06:57.250Z,17.10
2023-04-25T13:09:25.264Z,17.10
2023-04-25T13:11:56.082Z,17.20
2023-04-25T13:14:26.852Z,17.10
2023-04-25T13:16:55.391Z,17.10
2023-04-25T13:19:23.704Z,17.10
2023-04-25T13:21:52.111Z,17.00
2023-04-25T13:24:20.238Z,17.00
2023-04-25T13:26:48.725Z,17.00
2023-04-25T13:29:16.780Z,17.00
2023-04-25T13:31:46.202Z,17.00
2023-04-25T13:34:14.270Z,17.00
2023-04-25T13:36:42.385Z,17.00
2023-04-25T13:39:10.577Z,17.10
2023-04-25T13:41:38.613Z,17.10
2023-04-25T13:44:06.718Z,17.00
2023-04-25T13:46:46.433Z,17.10
2023-04-25T13:49:16.916Z,17.00
2023-04-25T13:51:45.004Z,17.00
2023-04-25T13:54:13.086Z,17.00
2023-04-25T13:56:43.245Z,17.00
2023-04-25T13:59:11.815Z,17.00
2023-04-25T14:01:39.989Z,17.00
2023-04-25T14:04:08.046Z,17.10
2023-04-25T14:06:37.748Z,17.10
2023-04-25T14:09:07.825Z,17.10
2023-04-25T14:11:35.923Z,17.10
2023-04-25T14:14:04.007Z,17.10
2023-04-25T14:16:32.434Z,17.00
2023-04-25T14:19:01.295Z,17.00
2023-04-25T14:21:29.364Z,17.00
2023-04-25T14:23:58.760Z,17.00
2023-04-25T14:26:27.389Z,17.00
2023-04-25T14:28:55.492Z,17.00
2023-04-25T14:31:23.621Z,17.00
2023-04-25T14:33:52.376Z,17.00
2023-04-25T14:36:20.642Z,17.00
2023-04-25T14:38:48.726Z,17.00
2023-04-25T14:41:18.130Z,17.00
2023-04-25T14:43:46.313Z,17.10
2023-04-25T14:46:14.514Z,17.00
2023-04-25T14:48:42.746Z,17.00
2023-04-25T14:51:10.839Z,17.00
2023-04-25T14:53:38.921Z,17.00
2023-04-25T14:56:08.783Z,17.00
2023-04-25T14:58:38.769Z,17.00
2023-04-25T15:01:07.832Z,17.00
2023-04-25T15:03:36.236Z,17.00
2023-04-25T15:06:04.690Z,17.00
2023-04-25T15:08:33.183Z,17.00
2023-04-25T15:11:01.400Z,17.00
2023-04-25T15:13:29.492Z,17.00
2023-04-25T15:15:58.944Z,17.00
2023-04-25T15:18:27.523Z,16.90
2023-04-25T15:20:56.076Z,16.90
2023-04-25T15:23:25.332Z,16.80
2023-04-25T15:25:54.542Z,16.80
2023-04-25T15:28:23.050Z,16.80
2023-04-25T15:30:51.504Z,16.90
2023-04-25T15:33:20.992Z,16.90
2023-04-25T15:35:49.053Z,16.80
2023-04-25T15:38:17.099Z,16.90
2023-04-25T15:40:45.211Z,16.90
2023-04-25T15:43:16.087Z,16.90
2023-04-25T15:45:45.614Z,16.90
2023-04-25T15:48:14.338Z,16.90
2023-04-25T15:50:43.801Z,16.90
2023-04-25T15:53:12.415Z,16.90
2023-04-25T15:55:40.525Z,16.90
2023-04-25T15:58:10.595Z,16.80
2023-04-25T16:00:48.982Z,16.90
2023-04-25T16:03:18.239Z,16.90
2023-04-25T16:05:48.131Z,16.80
2023-04-25T16:08:16.211Z,16.90
2023-04-25T16:10:44.283Z,16.90
2023-04-25T16:13:12.425Z,16.90
2023-04-25T16:15:46.640Z,16.90
2023-04-25T16:18:17.498Z,16.90
2023-04-25T16:20:47.248Z,16.80
2023-04-25T16:23:15.465Z,16.80
2023-04-25T16:25:44.511Z,16.80
2023-04-25T16:28:12.610Z,16.80
2023-04-25T16:30:41.348Z,16.80
2023-04-25T16:33:09.495Z,16.90
2023-04-25T16:35:37.707Z,16.90
2023-04-25T16:38:07.674Z,16.80
2023-04-25T16:40:35.770Z,16.80
2023-04-25T16:43:03.800Z,16.90
2023-04-25T16:45:31.879Z,16.90
2023-04-25T16:48:00.116Z,16.90
2023-04-25T16:50:28.298Z,16.80
2023-04-25T16:52:56.542Z,16.80
2023-04-25T16:55:27.093Z,16.80
2023-04-25T16:57:55.183Z,16.80
2023-04-25T17:00:23.873Z,16.80
2023-04-25T17:02:55.076Z,16.80
2023-04-25T17:05:23.261Z,16.80
2023-04-25T17:07:52.233Z,16.80
2023-04-25T17:10:20.380Z,16.80
2023-04-25T17:12:51.166Z,16.80
2023-04-25T17:15:19.277Z,16.80
2023-04-25T17:17:47.632Z,16.80
2023-04-25T17:20:15.912Z,16.70
2023-04-25T17:22:44.041Z,16.70
2023-04-25T17:25:12.188Z,16.60
2023-04-25T17:27:40.251Z,16.60
2023-04-25T17:30:10.724Z,16.60
2023-04-25T17:32:38.960Z,16.60
2023-04-25T17:35:07.571Z,16.60
2023-04-25T17:37:36.011Z,16.70
2023-04-25T17:40:05.046Z,16.70
2023-04-25T17:42:33.372Z,16.70
2023-04-25T17:45:01.515Z,16.70
2023-04-25T17:47:32.130Z,16.70
2023-04-25T17:50:00.345Z,16.70
2023-04-25T17:52:29.285Z,16.70
2023-04-25T17:54:57.457Z,16.70
2023-04-25T17:57:25.801Z,16.60
2023-04-25T17:59:54.283Z,16.60
2023-04-25T18:02:22.859Z,16.60
2023-04-25T18:04:52.701Z,16.70
2023-04-25T18:07:21.137Z,16.60
2023-04-25T18:09:49.283Z,16.70
2023-04-25T18:12:19.537Z,16.70
2023-04-25T18:14:47.596Z,16.70
2023-04-25T18:17:17.214Z,16.70
2023-04-25T18:19:45.297Z,16.70
2023-04-25T18:22:15.027Z,16.70
2023-04-25T18:24:44.738Z,16.60
2023-04-25T18:27:12.873Z,16.60
2023-04-25T18:29:42.574Z,16.60
2023-04-25T18:32:11.055Z,16.60
2023-04-25T18:34:41.563Z,16.60
2023-04-25T18:37:09.695Z,16.60
2023-04-25T18:39:39.209Z,16.60
2023-04-25T18:42:08.505Z,16.60
2023-04-25T18:44:40.073Z,16.60
2023-04-25T18:47:08.502Z,16.70
2023-04-25T18:49:37.630Z,16.60
2023-04-25T18:52:07.579Z,16.50
2023-04-25T18:54:35.740Z,16.50
2023-04-25T18:57:06.232Z,16.50
2023-04-25T18:59:34.454Z,16.60
2023-04-25T19:02:03.349Z,16.50
2023-04-25T19:04:32.400Z,16.60
2023-04-25T19:07:00.710Z,16.50
2023-04-25T19:09:28.820Z,16.60
2023-04-25T19:11:57.484Z,16.60
2023-04-25T19:14:28.507Z,16.60
2023-04-25T19:16:59.243Z,16.60
2023-04-25T19:19:28.196Z,16.60
2023-04-25T19:21:56.269Z,16.50
2023-04-25T19:24:24.419Z,16.40
2023-04-25T19:26:52.566Z,16.40
2023-04-25T19:29:20.690Z,16.40
2023-04-25T19:31:50.234Z,16.30
2023-04-25T19:34:18.420Z,16.40
2023-04-25T19:36:46.515Z,16.40
2023-04-25T19:39:14.620Z,16.40
2023-04-25T19:41:42.732Z,16.40
2023-04-25T19:44:11.000Z,16.50
2023-04-25T19:46:39.526Z,16.50
2023-04-25T19:49:09.191Z,16.50
2023-04-25T19:51:37.699Z,16.50
2023-04-25T19:54:06.119Z,16.50
2023-04-25T19:56:34.190Z,16.50
2023-04-25T19:59:02.297Z,16.40
2023-04-25T20:01:30.603Z,16.40
2023-04-25T20:03:58.733Z,16.40
2023-04-25T20:06:29.107Z,16.40
2023-04-25T20:08:59.209Z,16.40
2023-04-25T20:11:29.178Z,16.50
2023-04-25T20:13:57.421Z,16.50
2023-04-25T20:16:25.598Z,16.50
2023-04-25T20:18:54.347Z,16.50
2023-04-25T20:21:23.202Z,16.50
2023-04-25T20:23:52.736Z,16.50
2023-04-25T20:26:22.667Z,16.40
2023-04-25T20:28:51.396Z,16.30
2023-04-25T20:31:19.806Z,16.30
2023-04-25T20:33:48.102Z,16.40
2023-04-25T20:36:16.223Z,16.40
2023-04-25T20:38:44.256Z,16.40
2023-04-25T20:41:13.911Z,16.40
2023-04-25T20:43:42.272Z,16.50
2023-04-25T20:46:10.456Z,16.50
2023-04-25T20:48:38.638Z,16.40
2023-04-25T20:51:07.319Z,16.40
2023-04-25T20:53:35.618Z,16.30
2023-04-25T20:56:04.563Z,16.30
2023-04-25T20:58:34.048Z,16.30
2023-04-25T21:01:03.241Z,16.30
2023-04-25T21:03:31.635Z,16.30
2023-04-25T21:05:59.871Z,16.40
2023-04-25T21:08:28.180Z,16.40
2023-04-25T21:10:56.286Z,16.40
2023-04-25T21:13:24.823Z,16.40
2023-04-25T21:15:54.240Z,16.40
2023-04-25T21:18:22.427Z,16.40
2023-04-25T21:20:50.564Z,16.40
2023-04-25T21:23:19.420Z,16.30
2023-04-25T21:25:48.878Z,16.20
2023-04-25T21:28:16.957Z,16.20
2023-04-25T21:30:45.277Z,16.10
2023-04-25T21:33:14.823Z,16.10
2023-04-25T21:35:42.961Z,16.20
2023-04-25T21:38:11.061Z,16.10
2023-04-25T21:40:39.120Z,16.20
2023-04-25T21:43:07.499Z,16.20
2023-04-25T21:45:43.387Z,16.30
2023-04-25T21:48:25.065Z,16.20
2023-04-25T21:50:53.148Z,16.30
2023-04-25T21:53:21.186Z,16.30
2023-04-25T21:55:49.250Z,16.30
2023-04-25T21:58:17.420Z,16.20
2023-04-25T22:00:45.493Z,16.20
2023-04-25T22:03:15.015Z,16.10
2023-04-25T22:05:44.503Z,16.20
2023-04-25T22:08:12.693Z,16.20
2023-04-25T22:10:41.858Z,16.20
2023-04-25T22:13:10.147Z,16.20
2023-04-25T22:15:38.215Z,16.20
2023-04-25T22:18:06.947Z,16.30
2023-04-25T22:20:35.172Z,16.20
2023-04-25T22:23:04.649Z,16.20
2023-04-25T22:25:32.908Z,16.20
2023-04-25T22:28:01.105Z,16.10
2023-04-25T22:30:31.124Z,16.10
2023-04-25T22:32:59.709Z,16.10
2023-04-25T22:35:27.927Z,16.20
2023-04-25T22:38:03.609Z,16.20
2023-04-25T22:40:33.063Z,16.20
2023-04-25T22:43:04.178Z,16.20
2023-04-25T22:45:32.642Z,16.20
2023-04-25T22:48:00.832Z,16.20
2023-04-25T22:50:29.024Z,16.20
2023-04-25T22:52:57.771Z,16.20
2023-04-25T22:55:26.569Z,16.10
2023-04-25T22:57:56.397Z,16.00
2023-04-25T23:00:26.215Z,16.10
2023-04-25T23:02:55.082Z,16.10
2023-04-25T23:05:24.490Z,16.10
2023-04-25T23:07:52.590Z,16.10
2023-04-25T23:10:20.848Z,16.10
2023-04-25T23:12:48.952Z,16.10
2023-04-25T23:15:18.417Z,16.20
2023-04-25T23:17:46.612Z,16.10
2023-04-25T23:20:14.942Z,16.10
2023-04-25T23:22:43.006Z,16.10
2023-04-25T23:25:11.919Z,16.00
2023-04-25T23:27:40.042Z,16.00
2023-04-25T23:30:10.190Z,15.90
2023-04-25T23:32:39.730Z,15.80
2023-04-25T23:35:08.395Z,15.90
2023-04-25T23:37:37.234Z,15.90
2023-04-25T23:40:08.662Z,15.90
2023-04-25T23:42:36.803Z,16.00
2023-04-25T23:45:06.153Z,16.00
2023-04-25T23:47:34.349Z,16.00
2023-04-25T23:50:04.330Z,16.00
2023-04-25T23:52:32.510Z,16.00
2023-04-25T23:55:00.694Z,16.00
2023-04-25T23:57:28.763Z,16.00
2023-04-25T23:59:57.134Z,15.90
